sensor_id;sensor_type;location;lat;lon;timestamp;temperature;humidity
17851;DHT22;9051;51.548;14.348;2022-08-11T00:00:44;17.50;99.90
17851;DHT22;9051;51.548;14.348;2022-08-11T00:03:19;17.40;99.90
17851;DHT22;9051;51.548;14.348;2022-08-11T00:05:53;17.30;99.90
17851;DHT22;9051;51.548;14.348;2022-08-11T00:08:29;17.30;99.90
17851;DHT22;9051;51.548;14.348;2022-08-11T00:11:03;17.10;99.90
17851;DHT22;9051;51.548;14.348;2022-08-11T00:13:38;17.00;99.90
17851;DHT22;9051;51.548;14.348;2022-08-11T00:16:13;16.90;99.90
17851;DHT22;9051;51.548;14.348;2022-08-11T00:18:48;16.90;99.90
17851;DHT22;9051;51.548;14.348;2022-08-11T00:21:21;16.90;99.90
17851;DHT22;9051;51.548;14.348;2022-08-11T00:23:55;16.80;99.90
17851;DHT22;9051;51.548;14.348;2022-08-11T00:26:28;16.80;99.90
17851;DHT22;9051;51.548;14.348;2022-08-11T00:29:07;16.70;99.90
17851;DHT22;9051;51.548;14.348;2022-08-11T00:31:44;16.80;99.90
17851;DHT22;9051;51.548;14.348;2022-08-11T00:34:22;16.80;99.90
17851;DHT22;9051;51.548;14.348;2022-08-11T00:36:58;16.80;99.90
17851;DHT22;9051;51.548;14.348;2022-08-11T00:39:33;16.80;99.90
17851;DHT22;9051;51.548;14.348;2022-08-11T00:42:17;16.80;99.90
17851;DHT22;9051;51.548;14.348;2022-08-11T00:45:03;16.80;99.90
17851;DHT22;9051;51.548;14.348;2022-08-11T00:47:47;16.80;99.90
17851;DHT22;9051;51.548;14.348;2022-08-11T00:50:36;16.80;99.90
17851;DHT22;9051;51.548;14.348;2022-08-11T00:53:31;16.90;99.90
17851;DHT22;9051;51.548;14.348;2022-08-11T00:59:08;16.80;99.90
17851;DHT22;9051;51.548;14.348;2022-08-11T01:01:57;16.90;99.90
17851;DHT22;9051;51.548;14.348;2022-08-11T01:08:22;17.00;99.90
17851;DHT22;9051;51.548;14.348;2022-08-11T01:11:22;16.90;99.90
17851;DHT22;9051;51.548;14.348;2022-08-11T01:24:28;16.30;99.90
17851;DHT22;9051;51.548;14.348;2022-08-11T01:27:33;16.40;99.90
17851;DHT22;9051;51.548;14.348;2022-08-11T01:30:19;16.30;99.90
17851;DHT22;9051;51.548;14.348;2022-08-11T01:33:17;16.30;99.90
17851;DHT22;9051;51.548;14.348;2022-08-11T01:36:29;16.30;99.90
17851;DHT22;9051;51.548;14.348;2022-08-11T01:42:39;16.30;99.90
17851;DHT22;9051;51.548;14.348;2022-08-11T01:45:38;16.10;99.90
17851;DHT22;9051;51.548;14.348;2022-08-11T01:48:21;16.10;99.90
17851;DHT22;9051;51.548;14.348;2022-08-11T01:51:12;16.10;99.90
17851;DHT22;9051;51.548;14.348;2022-08-11T01:53:59;16.00;99.90
17851;DHT22;9051;51.548;14.348;2022-08-11T01:56:43;16.10;99.90
17851;DHT22;9051;51.548;14.348;2022-08-11T01:59:20;16.00;99.90
17851;DHT22;9051;51.548;14.348;2022-08-11T02:02:25;16.00;99.90
17851;DHT22;9051;51.548;14.348;2022-08-11T02:05:56;16.00;99.90
17851;DHT22;9051;51.548;14.348;2022-08-11T02:08:40;15.70;99.90
17851;DHT22;9051;51.548;14.348;2022-08-11T02:11:23;15.70;99.90
17851;DHT22;9051;51.548;14.348;2022-08-11T02:14:10;15.70;99.90
17851;DHT22;9051;51.548;14.348;2022-08-11T02:16:50;15.70;99.90
17851;DHT22;9051;51.548;14.348;2022-08-11T02:19:32;15.70;99.90
17851;DHT22;9051;51.548;14.348;2022-08-11T02:22:30;15.70;99.90
17851;DHT22;9051;51.548;14.348;2022-08-11T02:25:24;15.70;99.90
17851;DHT22;9051;51.548;14.348;2022-08-11T02:28:05;15.70;99.90
17851;DHT22;9051;51.548;14.348;2022-08-11T02:30:57;15.60;99.90
17851;DHT22;9051;51.548;14.348;2022-08-11T02:33:49;15.70;99.90
17851;DHT22;9051;51.548;14.348;2022-08-11T02:36:35;15.80;99.90
17851;DHT22;9051;51.548;14.348;2022-08-11T02:39:11;15.80;99.90
17851;DHT22;9051;51.548;14.348;2022-08-11T02:41:51;15.90;99.90
17851;DHT22;9051;51.548;14.348;2022-08-11T02:45:00;15.90;99.90
17851;DHT22;9051;51.548;14.348;2022-08-11T02:47:41;15.70;99.90
17851;DHT22;9051;51.548;14.348;2022-08-11T02:50:38;15.80;99.90
17851;DHT22;9051;51.548;14.348;2022-08-11T02:53:13;15.70;99.90
17851;DHT22;9051;51.548;14.348;2022-08-11T02:55:54;15.70;99.90
17851;DHT22;9051;51.548;14.348;2022-08-11T02:58:35;15.50;99.90
17851;DHT22;9051;51.548;14.348;2022-08-11T03:01:17;15.50;99.90
17851;DHT22;9051;51.548;14.348;2022-08-11T03:03:54;15.50;99.90
17851;DHT22;9051;51.548;14.348;2022-08-11T03:06:35;15.60;99.90
17851;DHT22;9051;51.548;14.348;2022-08-11T03:09:15;15.60;99.90
17851;DHT22;9051;51.548;14.348;2022-08-11T03:11:59;15.40;99.90
17851;DHT22;9051;51.548;14.348;2022-08-11T03:14:55;15.40;99.90
17851;DHT22;9051;51.548;14.348;2022-08-11T03:17:59;15.30;99.90
17851;DHT22;9051;51.548;14.348;2022-08-11T03:20:37;15.20;99.90
17851;DHT22;9051;51.548;14.348;2022-08-11T03:23:17;15.20;99.90
17851;DHT22;9051;51.548;14.348;2022-08-11T03:25:59;15.30;99.90
17851;DHT22;9051;51.548;14.348;2022-08-11T03:28:35;15.30;99.90
17851;DHT22;9051;51.548;14.348;2022-08-11T03:31:19;15.30;99.90
17851;DHT22;9051;51.548;14.348;2022-08-11T03:33:58;15.20;99.90
17851;DHT22;9051;51.548;14.348;2022-08-11T03:37:03;15.20;99.90
17851;DHT22;9051;51.548;14.348;2022-08-11T03:39:46;15.10;99.90
17851;DHT22;9051;51.548;14.348;2022-08-11T03:42:25;15.00;99.90
17851;DHT22;9051;51.548;14.348;2022-08-11T03:45:08;14.90;99.90
17851;DHT22;9051;51.548;14.348;2022-08-11T03:48:04;14.90;99.90
17851;DHT22;9051;51.548;14.348;2022-08-11T03:51:04;14.80;99.90
17851;DHT22;9051;51.548;14.348;2022-08-11T03:53:57;14.80;99.90
17851;DHT22;9051;51.548;14.348;2022-08-11T04:00:13;14.80;99.90
17851;DHT22;9051;51.548;14.348;2022-08-11T04:09:53;14.70;99.90
17851;DHT22;9051;51.548;14.348;2022-08-11T04:16:31;14.60;99.90
17851;DHT22;9051;51.548;14.348;2022-08-11T04:28:51;14.50;99.90
17851;DHT22;9051;51.548;14.348;2022-08-11T04:31:37;14.40;99.90
17851;DHT22;9051;51.548;14.348;2022-08-11T04:34:32;14.50;99.90
17851;DHT22;9051;51.548;14.348;2022-08-11T04:37:18;14.60;99.90
17851;DHT22;9051;51.548;14.348;2022-08-11T04:40:34;14.60;99.90
17851;DHT22;9051;51.548;14.348;2022-08-11T04:43:38;14.70;99.90
17851;DHT22;9051;51.548;14.348;2022-08-11T04:46:33;14.80;99.90
17851;DHT22;9051;51.548;14.348;2022-08-11T04:49:35;14.90;99.90
17851;DHT22;9051;51.548;14.348;2022-08-11T04:52:48;15.00;99.90
17851;DHT22;9051;51.548;14.348;2022-08-11T04:56:04;15.10;99.90
17851;DHT22;9051;51.548;14.348;2022-08-11T04:59:12;15.20;99.90
17851;DHT22;9051;51.548;14.348;2022-08-11T05:05:20;15.40;99.90
17851;DHT22;9051;51.548;14.348;2022-08-11T05:09:00;15.50;99.90
17851;DHT22;9051;51.548;14.348;2022-08-11T05:12:05;15.60;99.90
17851;DHT22;9051;51.548;14.348;2022-08-11T05:14:48;15.70;99.90
17851;DHT22;9051;51.548;14.348;2022-08-11T05:17:40;15.80;99.90
17851;DHT22;9051;51.548;14.348;2022-08-11T05:20:42;15.90;99.90
17851;DHT22;9051;51.548;14.348;2022-08-11T05:23:35;16.00;99.90
17851;DHT22;9051;51.548;14.348;2022-08-11T05:26:29;16.10;99.90
17851;DHT22;9051;51.548;14.348;2022-08-11T05:29:43;16.30;99.90
17851;DHT22;9051;51.548;14.348;2022-08-11T05:32:36;16.40;99.90
17851;DHT22;9051;51.548;14.348;2022-08-11T05:35:30;16.50;99.90
17851;DHT22;9051;51.548;14.348;2022-08-11T05:38:09;16.50;99.90
17851;DHT22;9051;51.548;14.348;2022-08-11T05:41:02;16.60;99.90
17851;DHT22;9051;51.548;14.348;2022-08-11T05:43:52;16.70;99.90
17851;DHT22;9051;51.548;14.348;2022-08-11T05:46:42;16.70;99.90
17851;DHT22;9051;51.548;14.348;2022-08-11T05:49:33;16.80;99.90
17851;DHT22;9051;51.548;14.348;2022-08-11T05:52:24;16.90;99.90
17851;DHT22;9051;51.548;14.348;2022-08-11T05:55:16;16.90;99.90
17851;DHT22;9051;51.548;14.348;2022-08-11T05:58:07;17.10;99.90
17851;DHT22;9051;51.548;14.348;2022-08-11T06:00:41;17.20;99.90
17851;DHT22;9051;51.548;14.348;2022-08-11T06:03:21;17.30;99.90
17851;DHT22;9051;51.548;14.348;2022-08-11T06:05:56;17.40;99.90
17851;DHT22;9051;51.548;14.348;2022-08-11T06:08:30;17.40;99.90
17851;DHT22;9051;51.548;14.348;2022-08-11T06:11:06;17.50;99.90
17851;DHT22;9051;51.548;14.348;2022-08-11T06:13:43;17.70;99.90
17851;DHT22;9051;51.548;14.348;2022-08-11T06:16:21;17.80;99.90
17851;DHT22;9051;51.548;14.348;2022-08-11T06:18:53;17.90;99.90
17851;DHT22;9051;51.548;14.348;2022-08-11T06:21:26;17.90;99.90
17851;DHT22;9051;51.548;14.348;2022-08-11T06:23:58;18.00;99.90
17851;DHT22;9051;51.548;14.348;2022-08-11T06:26:32;18.10;99.90
17851;DHT22;9051;51.548;14.348;2022-08-11T06:29:04;18.30;99.90
17851;DHT22;9051;51.548;14.348;2022-08-11T06:31:37;18.30;99.90
17851;DHT22;9051;51.548;14.348;2022-08-11T06:34:14;18.40;99.90
17851;DHT22;9051;51.548;14.348;2022-08-11T06:36:53;18.50;99.90
17851;DHT22;9051;51.548;14.348;2022-08-11T06:39:31;18.70;99.90
17851;DHT22;9051;51.548;14.348;2022-08-11T06:42:13;18.80;99.90
17851;DHT22;9051;51.548;14.348;2022-08-11T06:44:55;18.90;99.90
17851;DHT22;9051;51.548;14.348;2022-08-11T06:47:31;18.90;99.90
17851;DHT22;9051;51.548;14.348;2022-08-11T06:50:05;19.10;99.90
17851;DHT22;9051;51.548;14.348;2022-08-11T06:52:54;19.30;99.90
17851;DHT22;9051;51.548;14.348;2022-08-11T06:55:29;19.40;99.90
17851;DHT22;9051;51.548;14.348;2022-08-11T06:58:21;19.70;99.90
17851;DHT22;9051;51.548;14.348;2022-08-11T07:01:13;19.70;99.90
17851;DHT22;9051;51.548;14.348;2022-08-11T07:03:49;19.90;99.90
17851;DHT22;9051;51.548;14.348;2022-08-11T07:06:38;20.00;99.90
17851;DHT22;9051;51.548;14.348;2022-08-11T07:09:37;20.20;99.90
17851;DHT22;9051;51.548;14.348;2022-08-11T07:12:39;20.30;99.90
17851;DHT22;9051;51.548;14.348;2022-08-11T07:15:33;20.40;99.90
17851;DHT22;9051;51.548;14.348;2022-08-11T07:18:20;20.50;99.90
17851;DHT22;9051;51.548;14.348;2022-08-11T07:21:14;20.60;99.90
17851;DHT22;9051;51.548;14.348;2022-08-11T07:24:10;20.90;99.90
17851;DHT22;9051;51.548;14.348;2022-08-11T07:27:04;21.20;99.90
17851;DHT22;9051;51.548;14.348;2022-08-11T07:29:56;21.30;99.90
17851;DHT22;9051;51.548;14.348;2022-08-11T07:32:43;21.50;99.90
17851;DHT22;9051;51.548;14.348;2022-08-11T07:35:19;21.70;99.90
17851;DHT22;9051;51.548;14.348;2022-08-11T07:37:56;21.90;99.90
17851;DHT22;9051;51.548;14.348;2022-08-11T07:40:29;22.00;99.90
17851;DHT22;9051;51.548;14.348;2022-08-11T07:43:02;22.10;99.90
17851;DHT22;9051;51.548;14.348;2022-08-11T07:45:41;22.20;99.90
17851;DHT22;9051;51.548;14.348;2022-08-11T07:48:32;22.30;99.90
17851;DHT22;9051;51.548;14.348;2022-08-11T07:51:23;22.50;99.90
17851;DHT22;9051;51.548;14.348;2022-08-11T07:54:13;22.70;99.90
17851;DHT22;9051;51.548;14.348;2022-08-11T07:56:46;22.70;99.90
17851;DHT22;9051;51.548;14.348;2022-08-11T07:59:19;22.70;99.90
17851;DHT22;9051;51.548;14.348;2022-08-11T08:02:11;23.00;99.90
17851;DHT22;9051;51.548;14.348;2022-08-11T08:05:05;23.20;99.90
17851;DHT22;9051;51.548;14.348;2022-08-11T08:07:54;23.30;99.90
17851;DHT22;9051;51.548;14.348;2022-08-11T08:10:44;23.40;99.90
17851;DHT22;9051;51.548;14.348;2022-08-11T08:13:34;23.60;99.90
17851;DHT22;9051;51.548;14.348;2022-08-11T08:16:25;23.70;99.90
17851;DHT22;9051;51.548;14.348;2022-08-11T08:19:18;23.80;99.90
17851;DHT22;9051;51.548;14.348;2022-08-11T08:21:52;23.80;99.90
17851;DHT22;9051;51.548;14.348;2022-08-11T08:24:25;24.10;99.90
17851;DHT22;9051;51.548;14.348;2022-08-11T08:26:58;24.20;99.90
17851;DHT22;9051;51.548;14.348;2022-08-11T08:29:33;24.30;99.90
17851;DHT22;9051;51.548;14.348;2022-08-11T08:32:23;24.50;99.90
17851;DHT22;9051;51.548;14.348;2022-08-11T08:34:57;24.60;99.90
17851;DHT22;9051;51.548;14.348;2022-08-11T08:37:31;24.60;99.90
17851;DHT22;9051;51.548;14.348;2022-08-11T08:40:06;24.60;99.90
17851;DHT22;9051;51.548;14.348;2022-08-11T08:42:46;24.80;99.90
17851;DHT22;9051;51.548;14.348;2022-08-11T08:45:21;24.80;99.90
17851;DHT22;9051;51.548;14.348;2022-08-11T08:47:58;24.90;99.90
17851;DHT22;9051;51.548;14.348;2022-08-11T08:50:33;24.90;99.90
17851;DHT22;9051;51.548;14.348;2022-08-11T08:53:27;24.90;99.90
17851;DHT22;9051;51.548;14.348;2022-08-11T08:56:02;25.00;99.90
17851;DHT22;9051;51.548;14.348;2022-08-11T08:58:36;25.20;99.90
17851;DHT22;9051;51.548;14.348;2022-08-11T09:01:09;25.30;99.90
17851;DHT22;9051;51.548;14.348;2022-08-11T09:03:42;25.30;99.90
17851;DHT22;9051;51.548;14.348;2022-08-11T09:06:14;25.40;99.90
17851;DHT22;9051;51.548;14.348;2022-08-11T09:08:48;25.50;99.90
17851;DHT22;9051;51.548;14.348;2022-08-11T09:11:22;25.60;99.90
17851;DHT22;9051;51.548;14.348;2022-08-11T09:14:12;25.50;99.90
17851;DHT22;9051;51.548;14.348;2022-08-11T09:16:44;25.50;99.90
17851;DHT22;9051;51.548;14.348;2022-08-11T09:19:19;25.50;99.90
17851;DHT22;9051;51.548;14.348;2022-08-11T09:21:51;25.50;99.90
17851;DHT22;9051;51.548;14.348;2022-08-11T09:24:39;25.70;99.90
17851;DHT22;9051;51.548;14.348;2022-08-11T09:27:28;25.60;99.90
17851;DHT22;9051;51.548;14.348;2022-08-11T09:30:01;25.60;99.90
17851;DHT22;9051;51.548;14.348;2022-08-11T09:32:33;25.50;99.90
17851;DHT22;9051;51.548;14.348;2022-08-11T09:35:07;25.70;99.90
17851;DHT22;9051;51.548;14.348;2022-08-11T09:37:39;25.80;99.90
17851;DHT22;9051;51.548;14.348;2022-08-11T09:40:30;25.90;99.90
17851;DHT22;9051;51.548;14.348;2022-08-11T09:43:05;25.90;99.90
17851;DHT22;9051;51.548;14.348;2022-08-11T09:45:57;25.80;99.90
17851;DHT22;9051;51.548;14.348;2022-08-11T09:48:31;26.00;99.90
17851;DHT22;9051;51.548;14.348;2022-08-11T09:51:06;26.00;99.90
17851;DHT22;9051;51.548;14.348;2022-08-11T09:53:40;26.30;99.90
17851;DHT22;9051;51.548;14.348;2022-08-11T09:56:15;26.40;99.90
17851;DHT22;9051;51.548;14.348;2022-08-11T09:59:06;26.50;99.90
17851;DHT22;9051;51.548;14.348;2022-08-11T10:01:42;26.70;99.90
17851;DHT22;9051;51.548;14.348;2022-08-11T10:04:17;26.80;99.90
17851;DHT22;9051;51.548;14.348;2022-08-11T10:06:53;26.90;99.90
17851;DHT22;9051;51.548;14.348;2022-08-11T10:09:37;27.00;99.90
17851;DHT22;9051;51.548;14.348;2022-08-11T10:12:19;27.10;99.90
17851;DHT22;9051;51.548;14.348;2022-08-11T10:14:57;26.90;99.90
17851;DHT22;9051;51.548;14.348;2022-08-11T10:17:54;26.80;99.90
17851;DHT22;9051;51.548;14.348;2022-08-11T10:20:46;26.80;99.90
17851;DHT22;9051;51.548;14.348;2022-08-11T10:23:20;26.70;99.90
17851;DHT22;9051;51.548;14.348;2022-08-11T10:26:10;26.80;99.90
17851;DHT22;9051;51.548;14.348;2022-08-11T10:29:09;26.80;99.90
17851;DHT22;9051;51.548;14.348;2022-08-11T10:31:55;26.90;99.90
17851;DHT22;9051;51.548;14.348;2022-08-11T10:34:54;27.10;99.90
17851;DHT22;9051;51.548;14.348;2022-08-11T10:37:27;27.10;99.90
17851;DHT22;9051;51.548;14.348;2022-08-11T10:40:07;27.30;99.90
17851;DHT22;9051;51.548;14.348;2022-08-11T10:42:41;27.30;99.90
17851;DHT22;9051;51.548;14.348;2022-08-11T10:45:34;27.30;99.90
17851;DHT22;9051;51.548;14.348;2022-08-11T10:48:39;27.40;99.90
17851;DHT22;9051;51.548;14.348;2022-08-11T10:51:11;27.60;99.90
17851;DHT22;9051;51.548;14.348;2022-08-11T10:53:45;27.50;99.90
17851;DHT22;9051;51.548;14.348;2022-08-11T10:56:37;27.70;99.90
17851;DHT22;9051;51.548;14.348;2022-08-11T10:59:28;27.80;99.90
17851;DHT22;9051;51.548;14.348;2022-08-11T11:02:01;27.90;99.90
17851;DHT22;9051;51.548;14.348;2022-08-11T11:04:46;28.00;99.90
17851;DHT22;9051;51.548;14.348;2022-08-11T11:07:30;27.90;99.90
17851;DHT22;9051;51.548;14.348;2022-08-11T11:10:06;27.90;99.90
17851;DHT22;9051;51.548;14.348;2022-08-11T11:12:42;27.70;99.90
17851;DHT22;9051;51.548;14.348;2022-08-11T11:15:34;28.00;99.90
17851;DHT22;9051;51.548;14.348;2022-08-11T11:18:28;28.00;99.90
17851;DHT22;9051;51.548;14.348;2022-08-11T11:21:06;28.10;99.90
17851;DHT22;9051;51.548;14.348;2022-08-11T11:23:42;28.20;99.90
17851;DHT22;9051;51.548;14.348;2022-08-11T11:26:36;28.20;99.90
17851;DHT22;9051;51.548;14.348;2022-08-11T11:29:34;28.10;99.90
17851;DHT22;9051;51.548;14.348;2022-08-11T11:32:24;27.90;99.90
17851;DHT22;9051;51.548;14.348;2022-08-11T11:35:08;27.60;99.90
17851;DHT22;9051;51.548;14.348;2022-08-11T11:37:43;27.70;99.90
17851;DHT22;9051;51.548;14.348;2022-08-11T11:40:18;27.90;99.90
17851;DHT22;9051;51.548;14.348;2022-08-11T11:42:53;28.10;99.90
17851;DHT22;9051;51.548;14.348;2022-08-11T11:45:27;28.20;99.90
17851;DHT22;9051;51.548;14.348;2022-08-11T11:48:00;28.40;99.90
17851;DHT22;9051;51.548;14.348;2022-08-11T11:50:36;28.50;99.90
17851;DHT22;9051;51.548;14.348;2022-08-11T11:53:09;28.50;99.90
17851;DHT22;9051;51.548;14.348;2022-08-11T11:55:42;28.70;99.90
17851;DHT22;9051;51.548;14.348;2022-08-11T11:58:14;28.80;99.90
17851;DHT22;9051;51.548;14.348;2022-08-11T12:01:06;29.10;99.90
17851;DHT22;9051;51.548;14.348;2022-08-11T12:03:50;29.10;99.90
17851;DHT22;9051;51.548;14.348;2022-08-11T12:06:24;29.00;99.90
17851;DHT22;9051;51.548;14.348;2022-08-11T12:08:57;28.70;99.90
17851;DHT22;9051;51.548;14.348;2022-08-11T12:11:30;28.60;99.90
17851;DHT22;9051;51.548;14.348;2022-08-11T12:14:20;28.50;99.90
17851;DHT22;9051;51.548;14.348;2022-08-11T12:16:56;28.60;99.90
17851;DHT22;9051;51.548;14.348;2022-08-11T12:19:28;28.40;99.90
17851;DHT22;9051;51.548;14.348;2022-08-11T12:22:02;28.60;99.90
17851;DHT22;9051;51.548;14.348;2022-08-11T12:24:51;28.80;99.90
17851;DHT22;9051;51.548;14.348;2022-08-11T12:27:41;29.00;99.90
17851;DHT22;9051;51.548;14.348;2022-08-11T12:30:13;29.20;99.90
17851;DHT22;9051;51.548;14.348;2022-08-11T12:32:45;29.30;99.90
17851;DHT22;9051;51.548;14.348;2022-08-11T12:35:18;29.50;99.90
17851;DHT22;9051;51.548;14.348;2022-08-11T12:37:53;29.40;99.90
17851;DHT22;9051;51.548;14.348;2022-08-11T12:40:26;29.50;99.90
17851;DHT22;9051;51.548;14.348;2022-08-11T12:43:17;29.60;99.90
17851;DHT22;9051;51.548;14.348;2022-08-11T12:46:08;29.60;99.90
17851;DHT22;9051;51.548;14.348;2022-08-11T12:48:43;29.80;99.90
17851;DHT22;9051;51.548;14.348;2022-08-11T12:51:35;29.70;99.90
17851;DHT22;9051;51.548;14.348;2022-08-11T12:54:30;29.90;99.90
17851;DHT22;9051;51.548;14.348;2022-08-11T12:57:10;30.10;99.90
17851;DHT22;9051;51.548;14.348;2022-08-11T13:00:02;30.10;99.90
17851;DHT22;9051;51.548;14.348;2022-08-11T13:02:53;30.20;99.30
17851;DHT22;9051;51.548;14.348;2022-08-11T13:05:46;30.40;99.10
17851;DHT22;9051;51.548;14.348;2022-08-11T13:08:21;30.20;99.20
17851;DHT22;9051;51.548;14.348;2022-08-11T13:10:57;30.00;98.00
17851;DHT22;9051;51.548;14.348;2022-08-11T13:13:48;30.00;99.90
17851;DHT22;9051;51.548;14.348;2022-08-11T13:16:23;30.20;99.00
17851;DHT22;9051;51.548;14.348;2022-08-11T13:18:56;30.40;98.80
17851;DHT22;9051;51.548;14.348;2022-08-11T13:21:30;30.30;99.30
17851;DHT22;9051;51.548;14.348;2022-08-11T13:24:03;30.30;98.70
17851;DHT22;9051;51.548;14.348;2022-08-11T13:26:36;30.10;98.10
17851;DHT22;9051;51.548;14.348;2022-08-11T13:29:09;30.10;99.00
17851;DHT22;9051;51.548;14.348;2022-08-11T13:31:41;30.40;98.80
17851;DHT22;9051;51.548;14.348;2022-08-11T13:34:14;30.40;98.30
17851;DHT22;9051;51.548;14.348;2022-08-11T13:36:48;30.30;98.70
17851;DHT22;9051;51.548;14.348;2022-08-11T13:39:22;30.20;98.10
17851;DHT22;9051;51.548;14.348;2022-08-11T13:41:58;30.10;97.80
17851;DHT22;9051;51.548;14.348;2022-08-11T13:44:33;30.20;98.40
17851;DHT22;9051;51.548;14.348;2022-08-11T13:47:07;30.40;99.10
17851;DHT22;9051;51.548;14.348;2022-08-11T13:49:41;30.60;97.80
17851;DHT22;9051;51.548;14.348;2022-08-11T13:52:15;30.70;97.90
17851;DHT22;9051;51.548;14.348;2022-08-11T13:54:49;30.50;98.20
17851;DHT22;9051;51.548;14.348;2022-08-11T13:57:24;30.60;98.40
17851;DHT22;9051;51.548;14.348;2022-08-11T13:59:56;30.30;97.60
17851;DHT22;9051;51.548;14.348;2022-08-11T14:02:43;30.20;98.80
17851;DHT22;9051;51.548;14.348;2022-08-11T14:05:18;30.40;98.90
17851;DHT22;9051;51.548;14.348;2022-08-11T14:07:52;30.70;98.80
17851;DHT22;9051;51.548;14.348;2022-08-11T14:10:28;30.60;96.60
17851;DHT22;9051;51.548;14.348;2022-08-11T14:13:06;30.40;97.00
17851;DHT22;9051;51.548;14.348;2022-08-11T14:15:59;30.40;97.50
17851;DHT22;9051;51.548;14.348;2022-08-11T14:18:34;30.80;97.70
17851;DHT22;9051;51.548;14.348;2022-08-11T14:21:12;31.00;98.70
17851;DHT22;9051;51.548;14.348;2022-08-11T14:24:03;31.30;96.80
17851;DHT22;9051;51.548;14.348;2022-08-11T14:26:35;30.90;98.70
17851;DHT22;9051;51.548;14.348;2022-08-11T14:29:12;30.80;97.60
17851;DHT22;9051;51.548;14.348;2022-08-11T14:31:45;30.90;98.90
17851;DHT22;9051;51.548;14.348;2022-08-11T14:34:19;31.20;98.20
17851;DHT22;9051;51.548;14.348;2022-08-11T14:36:54;31.30;96.30
17851;DHT22;9051;51.548;14.348;2022-08-11T14:39:28;30.80;97.10
17851;DHT22;9051;51.548;14.348;2022-08-11T14:42:06;30.90;97.10
17851;DHT22;9051;51.548;14.348;2022-08-11T14:45:00;30.80;97.90
17851;DHT22;9051;51.548;14.348;2022-08-11T14:47:55;30.90;97.20
17851;DHT22;9051;51.548;14.348;2022-08-11T14:50:30;31.20;97.50
17851;DHT22;9051;51.548;14.348;2022-08-11T14:53:06;31.40;97.40
17851;DHT22;9051;51.548;14.348;2022-08-11T14:55:41;31.40;96.00
17851;DHT22;9051;51.548;14.348;2022-08-11T14:58:32;31.20;96.10
17851;DHT22;9051;51.548;14.348;2022-08-11T15:01:06;30.80;96.50
17851;DHT22;9051;51.548;14.348;2022-08-11T15:03:58;30.90;97.00
17851;DHT22;9051;51.548;14.348;2022-08-11T15:06:29;31.00;95.90
17851;DHT22;9051;51.548;14.348;2022-08-11T15:09:03;31.10;95.90
17851;DHT22;9051;51.548;14.348;2022-08-11T15:11:36;31.00;96.60
17851;DHT22;9051;51.548;14.348;2022-08-11T15:14:25;31.20;95.70
17851;DHT22;9051;51.548;14.348;2022-08-11T15:17:16;30.90;97.30
17851;DHT22;9051;51.548;14.348;2022-08-11T15:19:49;30.80;95.70
17851;DHT22;9051;51.548;14.348;2022-08-11T15:22:39;30.90;96.70
17851;DHT22;9051;51.548;14.348;2022-08-11T15:25:30;31.20;96.30
17851;DHT22;9051;51.548;14.348;2022-08-11T15:28:04;31.40;95.80
17851;DHT22;9051;51.548;14.348;2022-08-11T15:30:56;31.40;95.20
17851;DHT22;9051;51.548;14.348;2022-08-11T15:33:51;31.20;94.60
17851;DHT22;9051;51.548;14.348;2022-08-11T15:36:44;31.10;94.70
17851;DHT22;9051;51.548;14.348;2022-08-11T15:39:38;31.20;95.70
17851;DHT22;9051;51.548;14.348;2022-08-11T15:42:34;31.40;96.10
17851;DHT22;9051;51.548;14.348;2022-08-11T15:45:27;31.50;95.40
17851;DHT22;9051;51.548;14.348;2022-08-11T15:48:33;31.50;95.60
17851;DHT22;9051;51.548;14.348;2022-08-11T15:51:10;31.30;94.60
17851;DHT22;9051;51.548;14.348;2022-08-11T15:53:46;30.90;95.90
17851;DHT22;9051;51.548;14.348;2022-08-11T15:56:21;30.80;95.80
17851;DHT22;9051;51.548;14.348;2022-08-11T15:58:56;30.90;95.20
17851;DHT22;9051;51.548;14.348;2022-08-11T16:01:48;30.90;95.00
17851;DHT22;9051;51.548;14.348;2022-08-11T16:04:40;30.80;96.10
17851;DHT22;9051;51.548;14.348;2022-08-11T16:07:16;31.10;95.90
17851;DHT22;9051;51.548;14.348;2022-08-11T16:09:59;31.20;94.90
17851;DHT22;9051;51.548;14.348;2022-08-11T16:12:36;30.90;95.30
17851;DHT22;9051;51.548;14.348;2022-08-11T16:15:10;30.70;97.00
17851;DHT22;9051;51.548;14.348;2022-08-11T16:18:02;30.40;96.30
17851;DHT22;9051;51.548;14.348;2022-08-11T16:20:34;30.60;96.10
17851;DHT22;9051;51.548;14.348;2022-08-11T16:23:08;30.70;96.30
17851;DHT22;9051;51.548;14.348;2022-08-11T16:25:41;30.90;95.70
17851;DHT22;9051;51.548;14.348;2022-08-11T16:28:15;31.00;96.00
17851;DHT22;9051;51.548;14.348;2022-08-11T16:30:47;30.90;95.20
17851;DHT22;9051;51.548;14.348;2022-08-11T16:33:22;30.80;96.00
17851;DHT22;9051;51.548;14.348;2022-08-11T16:35:55;30.80;96.40
17851;DHT22;9051;51.548;14.348;2022-08-11T16:38:48;30.80;96.40
17851;DHT22;9051;51.548;14.348;2022-08-11T16:41:23;30.90;96.70
17851;DHT22;9051;51.548;14.348;2022-08-11T16:44:17;30.90;95.90
17851;DHT22;9051;51.548;14.348;2022-08-11T16:47:09;30.70;96.30
17851;DHT22;9051;51.548;14.348;2022-08-11T16:49:43;30.70;95.80
17851;DHT22;9051;51.548;14.348;2022-08-11T16:52:17;30.50;95.80
17851;DHT22;9051;51.548;14.348;2022-08-11T16:54:50;30.30;96.70
17851;DHT22;9051;51.548;14.348;2022-08-11T16:57:24;30.30;96.00
17851;DHT22;9051;51.548;14.348;2022-08-11T17:00:16;30.30;95.80
17851;DHT22;9051;51.548;14.348;2022-08-11T17:02:49;30.00;96.30
17851;DHT22;9051;51.548;14.348;2022-08-11T17:05:43;29.90;96.40
17851;DHT22;9051;51.548;14.348;2022-08-11T17:08:36;29.80;96.60
17851;DHT22;9051;51.548;14.348;2022-08-11T17:11:33;29.60;96.40
17851;DHT22;9051;51.548;14.348;2022-08-11T17:14:26;29.60;96.50
17851;DHT22;9051;51.548;14.348;2022-08-11T17:17:00;29.60;96.50
17851;DHT22;9051;51.548;14.348;2022-08-11T17:19:35;29.40;96.60
17851;DHT22;9051;51.548;14.348;2022-08-11T17:22:08;29.40;96.90
17851;DHT22;9051;51.548;14.348;2022-08-11T17:24:58;29.30;96.80
17851;DHT22;9051;51.548;14.348;2022-08-11T17:27:33;29.10;97.00
17851;DHT22;9051;51.548;14.348;2022-08-11T17:30:07;29.10;97.00
17851;DHT22;9051;51.548;14.348;2022-08-11T17:32:42;29.00;97.10
17851;DHT22;9051;51.548;14.348;2022-08-11T17:35:34;28.90;97.20
17851;DHT22;9051;51.548;14.348;2022-08-11T17:38:10;28.80;97.60
17851;DHT22;9051;51.548;14.348;2022-08-11T17:40:45;28.60;97.50
17851;DHT22;9051;51.548;14.348;2022-08-11T17:43:33;28.60;97.50
17851;DHT22;9051;51.548;14.348;2022-08-11T17:46:23;28.40;97.50
17851;DHT22;9051;51.548;14.348;2022-08-11T17:49:14;28.30;97.90
17851;DHT22;9051;51.548;14.348;2022-08-11T17:51:50;28.30;97.60
17851;DHT22;9051;51.548;14.348;2022-08-11T17:54:42;28.20;97.70
17851;DHT22;9051;51.548;14.348;2022-08-11T17:57:32;28.00;98.10